sensor_id;sensor_type;location;lat;lon;timestamp;pressure;altitude;pressure_sealevel;temperature;humidity
51928;BME280;37953;52.806;18.270;2023-07-28T00:02:04;99586.50;;;19.37;100.00
51928;BME280;37953;52.806;18.270;2023-07-28T00:04:30;99573.41;;;19.36;100.00
51928;BME280;37953;52.806;18.270;2023-07-28T00:06:56;99579.63;;;19.35;100.00
51928;BME280;37953;52.806;18.270;2023-07-28T00:09:22;99572.56;;;19.35;100.00
51928;BME280;37953;52.806;18.270;2023-07-28T00:11:48;99571.72;;;19.35;100.00
51928;BME280;37953;52.806;18.270;2023-07-28T00:14:14;99574.34;;;19.35;100.00
51928;BME280;37953;52.806;18.270;2023-07-28T00:16:40;99569.09;;;19.35;100.00
51928;BME280;37953;52.806;18.270;2023-07-28T00:19:06;99563.81;;;19.35;100.00
51928;BME280;37953;52.806;18.270;2023-07-28T00:21:32;99563.72;;;19.36;100.00
51928;BME280;37953;52.806;18.270;2023-07-28T00:23:57;99556.75;;;19.35;100.00
51928;BME280;37953;52.806;18.270;2023-07-28T00:26:29;99557.59;;;19.36;100.00
51928;BME280;37953;52.806;18.270;2023-07-28T00:28:55;99551.50;;;19.35;100.00
51928;BME280;37953;52.806;18.270;2023-07-28T00:31:21;99552.41;;;19.34;100.00
51928;BME280;37953;52.806;18.270;2023-07-28T00:33:49;99546.22;;;19.35;100.00
51928;BME280;37953;52.806;18.270;2023-07-28T00:36:15;99549.72;;;19.36;100.00
51928;BME280;37953;52.806;18.270;2023-07-28T00:38:41;99554.03;;;19.37;100.00
51928;BME280;37953;52.806;18.270;2023-07-28T00:41:07;99550.47;;;19.38;100.00
51928;BME280;37953;52.806;18.270;2023-07-28T00:43:32;99548.69;;;19.38;100.00
51928;BME280;37953;52.806;18.270;2023-07-28T00:45:58;99544.22;;;19.40;100.00
51928;BME280;37953;52.806;18.270;2023-07-28T00:48:24;99542.53;;;19.39;100.00
51928;BME280;37953;52.806;18.270;2023-07-28T00:50:51;99531.88;;;19.41;100.00
51928;BME280;37953;52.806;18.270;2023-07-28T00:53:23;99523.13;;;19.40;100.00
51928;BME280;37953;52.806;18.270;2023-07-28T00:55:50;99534.53;;;19.41;100.00
51928;BME280;37953;52.806;18.270;2023-07-28T00:58:16;99528.41;;;19.40;100.00
51928;BME280;37953;52.806;18.270;2023-07-28T01:00:42;99527.56;;;19.40;100.00
51928;BME280;37953;52.806;18.270;2023-07-28T01:03:07;99526.63;;;19.41;100.00
51928;BME280;37953;52.806;18.270;2023-07-28T01:05:39;99526.72;;;19.39;100.00
51928;BME280;37953;52.806;18.270;2023-07-28T01:08:11;99525.84;;;19.39;100.00
51928;BME280;37953;52.806;18.270;2023-07-28T01:10:38;99518.03;;;19.37;100.00
51928;BME280;37953;52.806;18.270;2023-07-28T01:13:04;99520.56;;;19.39;100.00
51928;BME280;37953;52.806;18.270;2023-07-28T01:15:30;99515.41;;;19.37;100.00
51928;BME280;37953;52.806;18.270;2023-07-28T01:17:56;99511.88;;;19.37;100.00
51928;BME280;37953;52.806;18.270;2023-07-28T01:20:25;99509.25;;;19.37;100.00
51928;BME280;37953;52.806;18.270;2023-07-28T01:25:36;99509.34;;;19.35;100.00
51928;BME280;37953;52.806;18.270;2023-07-28T01:28:17;99503.25;;;19.35;100.00
51928;BME280;37953;52.806;18.270;2023-07-28T01:30:43;99507.63;;;19.34;100.00
51928;BME280;37953;52.806;18.270;2023-07-28T01:33:09;99501.53;;;19.33;100.00
51928;BME280;37953;52.806;18.270;2023-07-28T01:35:36;99499.84;;;19.32;100.00
51928;BME280;37953;52.806;18.270;2023-07-28T01:38:02;99505.94;;;19.33;100.00
51928;BME280;37953;52.806;18.270;2023-07-28T01:40:28;99499.84;;;19.32;100.00
51928;BME280;37953;52.806;18.270;2023-07-28T01:42:54;99485.78;;;19.32;100.00
51928;BME280;37953;52.806;18.270;2023-07-28T01:45:20;99478.81;;;19.31;100.00
51928;BME280;37953;52.806;18.270;2023-07-28T01:47:45;99477.97;;;19.30;100.00
51928;BME280;37953;52.806;18.270;2023-07-28T01:50:11;99477.09;;;19.30;100.00
51928;BME280;37953;52.806;18.270;2023-07-28T01:52:37;99477.09;;;19.30;100.00
51928;BME280;37953;52.806;18.270;2023-07-28T01:55:03;99472.78;;;19.29;100.00
51928;BME280;37953;52.806;18.270;2023-07-28T01:57:31;99472.78;;;19.29;100.00
51928;BME280;37953;52.806;18.270;2023-07-28T01:59:57;99461.47;;;19.27;100.00
51928;BME280;37953;52.806;18.270;2023-07-28T02:02:26;99464.94;;;19.27;100.00
51928;BME280;37953;52.806;18.270;2023-07-28T02:04:52;99462.38;;;19.26;100.00
51928;BME280;37953;52.806;18.270;2023-07-28T02:07:17;99458.06;;;19.25;100.00
51928;BME280;37953;52.806;18.270;2023-07-28T02:09:43;99455.44;;;19.25;100.00
51928;BME280;37953;52.806;18.270;2023-07-28T02:12:09;99453.72;;;19.24;100.00
51928;BME280;37953;52.806;18.270;2023-07-28T02:14:35;99456.34;;;19.24;100.00
51928;BME280;37953;52.806;18.270;2023-07-28T02:17:00;99454.72;;;19.21;100.00
51928;BME280;37953;52.806;18.270;2023-07-28T02:19:26;99453.03;;;19.20;100.00
51928;BME280;37953;52.806;18.270;2023-07-28T02:21:52;99448.66;;;19.19;100.00
51928;BME280;37953;52.806;18.270;2023-07-28T02:24:18;99443.50;;;19.18;100.00
51928;BME280;37953;52.806;18.270;2023-07-28T02:26:43;99455.78;;;19.17;100.00
51928;BME280;37953;52.806;18.270;2023-07-28T02:29:09;99450.63;;;19.16;100.00
51928;BME280;37953;52.806;18.270;2023-07-28T02:31:35;99445.44;;;19.14;100.00
51928;BME280;37953;52.806;18.270;2023-07-28T02:34:07;99450.69;;;19.14;100.00
51928;BME280;37953;52.806;18.270;2023-07-28T02:36:33;99448.13;;;19.12;100.00
51928;BME280;37953;52.806;18.270;2023-07-28T02:38:59;99448.13;;;19.12;100.00
51928;BME280;37953;52.806;18.270;2023-07-28T02:41:27;99441.16;;;19.11;100.00
51928;BME280;37953;52.806;18.270;2023-07-28T02:43:53;99442.00;;;19.12;100.00
51928;BME280;37953;52.806;18.270;2023-07-28T02:46:19;99437.66;;;19.11;100.00
51928;BME280;37953;52.806;18.270;2023-07-28T02:48:45;99429.88;;;19.09;100.00
51928;BME280;37953;52.806;18.270;2023-07-28T02:51:11;99425.50;;;19.08;100.00
51928;BME280;37953;52.806;18.270;2023-07-28T02:53:37;99436.09;;;19.07;100.00
51928;BME280;37953;52.806;18.270;2023-07-28T02:56:03;99431.72;;;19.07;100.00
51928;BME280;37953;52.806;18.270;2023-07-28T02:58:29;99430.94;;;19.05;100.00
51928;BME280;37953;52.806;18.270;2023-07-28T03:00:54;99439.75;;;19.04;100.00
51928;BME280;37953;52.806;18.270;2023-07-28T03:03:20;99435.41;;;19.03;100.00
51928;BME280;37953;52.806;18.270;2023-07-28T03:05:46;99427.59;;;19.02;100.00
51928;BME280;37953;52.806;18.270;2023-07-28T03:08:12;99428.53;;;19.01;100.00
51928;BME280;37953;52.806;18.270;2023-07-28T03:10:37;99424.19;;;19.00;100.00
51928;BME280;37953;52.806;18.270;2023-07-28T03:13:03;99425.97;;;18.99;100.00
51928;BME280;37953;52.806;18.270;2023-07-28T03:15:28;99423.34;;;18.99;100.00
51928;BME280;37953;52.806;18.270;2023-07-28T03:17:54;99421.63;;;18.98;100.00
51928;BME280;37953;52.806;18.270;2023-07-28T03:20:20;99413.72;;;18.98;100.00
51928;BME280;37953;52.806;18.270;2023-07-28T03:22:46;99416.34;;;18.98;100.00
51928;BME280;37953;52.806;18.270;2023-07-28T03:25:12;99420.78;;;18.98;100.00
51928;BME280;37953;52.806;18.270;2023-07-28T03:27:41;99419.09;;;18.97;100.00
51928;BME280;37953;52.806;18.270;2023-07-28T03:30:06;99417.34;;;18.96;100.00
51928;BME280;37953;52.806;18.270;2023-07-28T03:32:36;99413.88;;;18.95;100.00
51928;BME280;37953;52.806;18.270;2023-07-28T03:35:01;99412.09;;;18.96;100.00
51928;BME280;37953;52.806;18.270;2023-07-28T03:37:31;99414.78;;;18.94;100.00
51928;BME280;37953;52.806;18.270;2023-07-28T03:39:56;99418.38;;;18.93;100.00
51928;BME280;37953;52.806;18.270;2023-07-28T03:42:22;99415.75;;;18.93;100.00
51928;BME280;37953;52.806;18.270;2023-07-28T03:44:48;99409.63;;;18.92;100.00
51928;BME280;37953;52.806;18.270;2023-07-28T03:47:14;99401.81;;;18.91;100.00
51928;BME280;37953;52.806;18.270;2023-07-28T03:49:39;99408.84;;;18.90;100.00
51928;BME280;37953;52.806;18.270;2023-07-28T03:52:05;99406.28;;;18.89;100.00
51928;BME280;37953;52.806;18.270;2023-07-28T03:54:31;99408.91;;;18.89;100.00
51928;BME280;37953;52.806;18.270;2023-07-28T03:56:57;99401.03;;;18.89;100.00
51928;BME280;37953;52.806;18.270;2023-07-28T03:59:22;99409.81;;;18.88;100.00
51928;BME280;37953;52.806;18.270;2023-07-28T04:01:48;99402.03;;;18.86;100.00
51928;BME280;37953;52.806;18.270;2023-07-28T04:04:14;99406.44;;;18.86;100.00
51928;BME280;37953;52.806;18.270;2023-07-28T04:06:47;99398.63;;;18.84;100.00
51928;BME280;37953;52.806;18.270;2023-07-28T04:09:19;99403.09;;;18.82;100.00
51928;BME280;37953;52.806;18.270;2023-07-28T04:11:45;99391.72;;;18.82;100.00
51928;BME280;37953;52.806;18.270;2023-07-28T04:14:11;99392.63;;;18.81;100.00
51928;BME280;37953;52.806;18.270;2023-07-28T04:16:37;99393.59;;;18.80;100.00
51928;BME280;37953;52.806;18.270;2023-07-28T04:19:03;99395.34;;;18.79;100.00
51928;BME280;37953;52.806;18.270;2023-07-28T04:21:29;99385.75;;;18.78;100.00
51928;BME280;37953;52.806;18.270;2023-07-28T04:23:55;99382.31;;;18.76;100.00
51928;BME280;37953;52.806;18.270;2023-07-28T04:26:21;99385.84;;;18.75;100.00
51928;BME280;37953;52.806;18.270;2023-07-28T04:28:47;99384.16;;;18.74;100.00
51928;BME280;37953;52.806;18.270;2023-07-28T04:31:13;99380.69;;;18.74;100.00
51928;BME280;37953;52.806;18.270;2023-07-28T04:33:40;99385.06;;;18.73;100.00
51928;BME280;37953;52.806;18.270;2023-07-28T04:36:10;99384.28;;;18.71;100.00
51928;BME280;37953;52.806;18.270;2023-07-28T04:38:36;99381.66;;;18.71;100.00
51928;BME280;37953;52.806;18.270;2023-07-28T04:41:02;99377.34;;;18.70;100.00
51928;BME280;37953;52.806;18.270;2023-07-28T04:43:28;99381.75;;;18.69;100.00
51928;BME280;37953;52.806;18.270;2023-07-28T04:45:54;99382.66;;;18.68;100.00
51928;BME280;37953;52.806;18.270;2023-07-28T04:48:19;99372.25;;;18.67;100.00
51928;BME280;37953;52.806;18.270;2023-07-28T04:50:45;99384.63;;;18.65;100.00
51928;BME280;37953;52.806;18.270;2023-07-28T04:53:11;99384.69;;;18.63;100.00
51928;BME280;37953;52.806;18.270;2023-07-28T04:55:37;99379.56;;;18.60;100.00
51928;BME280;37953;52.806;18.270;2023-07-28T04:58:02;99377.94;;;18.58;100.00
51928;BME280;37953;52.806;18.270;2023-07-28T05:00:28;99378.00;;;18.56;100.00
51928;BME280;37953;52.806;18.270;2023-07-28T05:02:54;99378.16;;;18.53;100.00
51928;BME280;37953;52.806;18.270;2023-07-28T05:05:20;99380.00;;;18.51;100.00
51928;BME280;37953;52.806;18.270;2023-07-28T05:07:46;99374.03;;;18.47;100.00
51928;BME280;37953;52.806;18.270;2023-07-28T05:10:13;99375.88;;;18.45;100.00
51928;BME280;37953;52.806;18.270;2023-07-28T05:12:39;99372.41;;;18.45;100.00
51928;BME280;37953;52.806;18.270;2023-07-28T05:15:05;99371.69;;;18.41;100.00
51928;BME280;37953;52.806;18.270;2023-07-28T05:17:30;99368.22;;;18.41;100.00
51928;BME280;37953;52.806;18.270;2023-07-28T05:19:56;99368.38;;;18.38;100.00
51928;BME280;37953;52.806;18.270;2023-07-28T05:22:22;99375.47;;;18.36;100.00
51928;BME280;37953;52.806;18.270;2023-07-28T05:24:48;99364.16;;;18.34;100.00
51928;BME280;37953;52.806;18.270;2023-07-28T05:27:14;99366.81;;;18.34;100.00
51928;BME280;37953;52.806;18.270;2023-07-28T05:29:40;99365.09;;;18.33;100.00
51928;BME280;37953;52.806;18.270;2023-07-28T05:32:05;99362.53;;;18.31;100.00
51928;BME280;37953;52.806;18.270;2023-07-28T05:34:31;99367.81;;;18.31;100.00
51928;BME280;37953;52.806;18.270;2023-07-28T05:36:57;99357.34;;;18.29;100.00
51928;BME280;37953;52.806;18.270;2023-07-28T05:39:23;99363.50;;;18.28;100.00
51928;BME280;37953;52.806;18.270;2023-07-28T05:41:49;99364.47;;;18.27;100.00
51928;BME280;37953;52.806;18.270;2023-07-28T05:44:14;99372.41;;;18.26;100.00
51928;BME280;37953;52.806;18.270;2023-07-28T05:46:40;99361.94;;;18.24;100.00
51928;BME280;37953;52.806;18.270;2023-07-28T05:49:06;99367.22;;;18.24;100.00
51928;BME280;37953;52.806;18.270;2023-07-28T05:51:32;99365.53;;;18.23;100.00
51928;BME280;37953;52.806;18.270;2023-07-28T05:53:58;99365.53;;;18.23;100.00
51928;BME280;37953;52.806;18.270;2023-07-28T05:56:23;99369.94;;;18.23;100.00
51928;BME280;37953;52.806;18.270;2023-07-28T05:58:49;99358.53;;;18.22;100.00
51928;BME280;37953;52.806;18.270;2023-07-28T06:01:15;99355.06;;;18.22;100.00
51928;BME280;37953;52.806;18.270;2023-07-28T06:03:41;99352.44;;;18.22;100.00
51928;BME280;37953;52.806;18.270;2023-07-28T06:06:07;99356.84;;;18.21;100.00
51928;BME280;37953;52.806;18.270;2023-07-28T06:08:34;99353.28;;;18.22;100.00
51928;BME280;37953;52.806;18.270;2023-07-28T06:10:59;99350.66;;;18.22;100.00
51928;BME280;37953;52.806;18.270;2023-07-28T06:13:25;99355.06;;;18.22;100.00
51928;BME280;37953;52.806;18.270;2023-07-28T06:15:52;99353.28;;;18.22;100.00
51928;BME280;37953;52.806;18.270;2023-07-28T06:18:24;99351.53;;;18.23;100.00
51928;BME280;37953;52.806;18.270;2023-07-28T06:20:52;99350.66;;;18.22;100.00
51928;BME280;37953;52.806;18.270;2023-07-28T06:23:18;99355.00;;;18.23;100.00
51928;BME280;37953;52.806;18.270;2023-07-28T06:25:44;99355.00;;;18.23;100.00
51928;BME280;37953;52.806;18.270;2023-07-28T06:28:11;99345.34;;;18.24;100.00
51928;BME280;37953;52.806;18.270;2023-07-28T06:30:38;99347.13;;;18.23;100.00
51928;BME280;37953;52.806;18.270;2023-07-28T06:33:07;99346.19;;;18.24;100.00
51928;BME280;37953;52.806;18.270;2023-07-28T06:35:33;99351.44;;;18.24;100.00
51928;BME280;37953;52.806;18.270;2023-07-28T06:37:59;99341.78;;;18.25;100.00
51928;BME280;37953;52.806;18.270;2023-07-28T06:40:25;99346.97;;;18.26;100.00
51928;BME280;37953;52.806;18.270;2023-07-28T06:42:51;99353.09;;;18.27;100.00
51928;BME280;37953;52.806;18.270;2023-07-28T06:45:17;99350.38;;;18.28;100.00
51928;BME280;37953;52.806;18.270;2023-07-28T06:47:43;99347.69;;;18.30;100.00
51928;BME280;37953;52.806;18.270;2023-07-28T06:50:10;99337.09;;;18.31;100.00
51928;BME280;37953;52.806;18.270;2023-07-28T06:52:36;99343.13;;;18.34;100.00
51928;BME280;37953;52.806;18.270;2023-07-28T06:55:02;99338.66;;;18.36;100.00
51928;BME280;37953;52.806;18.270;2023-07-28T06:57:28;99338.50;;;18.39;100.00
51928;BME280;37953;52.806;18.270;2023-07-28T06:59:54;99334.03;;;18.41;100.00
51928;BME280;37953;52.806;18.270;2023-07-28T07:02:19;99345.19;;;18.46;100.00
51928;BME280;37953;52.806;18.270;2023-07-28T07:04:45;99338.94;;;18.48;100.00
51928;BME280;37953;52.806;18.270;2023-07-28T07:07:11;99337.97;;;18.49;100.00
51928;BME280;37953;52.806;18.270;2023-07-28T07:09:37;99349.22;;;18.53;100.00
51928;BME280;37953;52.806;18.270;2023-07-28T07:12:03;99345.66;;;18.54;100.00
51928;BME280;37953;52.806;18.270;2023-07-28T07:14:29;99347.38;;;18.55;100.00
51928;BME280;37953;52.806;18.270;2023-07-28T07:16:54;99340.31;;;18.56;100.00
51928;BME280;37953;52.806;18.270;2023-07-28T07:19:20;99347.31;;;18.57;100.00
51928;BME280;37953;52.806;18.270;2023-07-28T07:21:46;99358.66;;;18.57;100.00
51928;BME280;37953;52.806;18.270;2023-07-28T07:24:13;99355.09;;;18.58;100.00
51928;BME280;37953;52.806;18.270;2023-07-28T07:26:42;99354.19;;;18.59;100.00
51928;BME280;37953;52.806;18.270;2023-07-28T07:29:08;99351.56;;;18.59;100.00
51928;BME280;37953;52.806;18.270;2023-07-28T07:31:40;99355.03;;;18.60;100.00
51928;BME280;37953;52.806;18.270;2023-07-28T07:34:05;99351.56;;;18.59;100.00
51928;BME280;37953;52.806;18.270;2023-07-28T07:36:31;99357.66;;;18.60;100.00
51928;BME280;37953;52.806;18.270;2023-07-28T07:38:57;99357.66;;;18.60;100.00
51928;BME280;37953;52.806;18.270;2023-07-28T07:41:26;99356.81;;;18.59;100.00
51928;BME280;37953;52.806;18.270;2023-07-28T07:43:52;99359.38;;;18.61;100.00
51928;BME280;37953;52.806;18.270;2023-07-28T07:46:19;99358.44;;;18.62;100.00
51928;BME280;37953;52.806;18.270;2023-07-28T07:48:45;99362.84;;;18.61;100.00
51928;BME280;37953;52.806;18.270;2023-07-28T07:51:11;99364.53;;;18.62;100.00
51928;BME280;37953;52.806;18.270;2023-07-28T07:53:37;99357.53;;;18.63;100.00
51928;BME280;37953;52.806;18.270;2023-07-28T07:56:03;99353.97;;;18.64;100.00
51928;BME280;37953;52.806;18.270;2023-07-28T07:58:33;99348.63;;;18.65;100.00
51928;BME280;37953;52.806;18.270;2023-07-28T08:00:59;99353.81;;;18.67;100.00
51928;BME280;37953;52.806;18.270;2023-07-28T08:03:25;99354.59;;;18.69;100.00
51928;BME280;37953;52.806;18.270;2023-07-28T08:05:51;99351.03;;;18.70;100.00
51928;BME280;37953;52.806;18.270;2023-07-28T08:08:17;99350.97;;;18.71;100.00
51928;BME280;37953;52.806;18.270;2023-07-28T08:10:51;99357.00;;;18.74;100.00
51928;BME280;37953;52.806;18.270;2023-07-28T08:13:17;99353.44;;;18.75;100.00
51928;BME280;37953;52.806;18.270;2023-07-28T08:15:43;99357.78;;;18.76;100.00
51928;BME280;37953;52.806;18.270;2023-07-28T08:18:10;99362.09;;;18.77;100.00
51928;BME280;37953;52.806;18.270;2023-07-28T08:20:36;99353.38;;;18.76;100.00
51928;BME280;37953;52.806;18.270;2023-07-28T08:23:02;99358.56;;;18.78;100.00
51928;BME280;37953;52.806;18.270;2023-07-28T08:25:28;99353.25;;;18.79;100.00
51928;BME280;37953;52.806;18.270;2023-07-28T08:27:54;99354.13;;;18.80;100.00
51928;BME280;37953;52.806;18.270;2023-07-28T08:30:20;99357.53;;;18.82;100.00
51928;BME280;37953;52.806;18.270;2023-07-28T08:32:46;99364.47;;;18.83;100.00
51928;BME280;37953;52.806;18.270;2023-07-28T08:35:12;99364.41;;;18.84;100.00
51928;BME280;37953;52.806;18.270;2023-07-28T08:37:38;99362.63;;;18.85;100.00
51928;BME280;37953;52.806;18.270;2023-07-28T08:40:04;99362.63;;;18.85;100.00
51928;BME280;37953;52.806;18.270;2023-07-28T08:42:30;99362.56;;;18.86;100.00
51928;BME280;37953;52.806;18.270;2023-07-28T08:44:56;99360.00;;;18.85;100.00
51928;BME280;37953;52.806;18.270;2023-07-28T08:47:22;99360.75;;;18.87;100.00
51928;BME280;37953;52.806;18.270;2023-07-28T08:49:48;99358.06;;;18.88;100.00
51928;BME280;37953;52.806;18.270;2023-07-28T08:52:17;99350.94;;;18.90;100.00
51928;BME280;37953;52.806;18.270;2023-07-28T08:54:43;99353.41;;;18.94;100.00
51928;BME280;37953;52.806;18.270;2023-07-28T08:57:09;99352.34;;;18.98;100.00
51928;BME280;37953;52.806;18.270;2023-07-28T08:59:36;99349.47;;;19.02;100.00
51928;BME280;37953;52.806;18.270;2023-07-28T09:02:08;99353.66;;;19.06;100.00
51928;BME280;37953;52.806;18.270;2023-07-28T09:04:34;99349.16;;;19.08;100.00
51928;BME280;37953;52.806;18.270;2023-07-28T09:07:00;99349.88;;;19.12;100.00
51928;BME280;37953;52.806;18.270;2023-07-28T09:09:35;99351.56;;;19.13;100.00
51928;BME280;37953;52.806;18.270;2023-07-28T09:12:04;99345.38;;;19.14;100.00
51928;BME280;37953;52.806;18.270;2023-07-28T09:14:30;99354.06;;;19.16;100.00
51928;BME280;37953;52.806;18.270;2023-07-28T09:17:05;99346.94;;;19.18;100.00
51928;BME280;37953;52.806;18.270;2023-07-28T09:19:31;99349.47;;;19.20;100.00
51928;BME280;37953;52.806;18.270;2023-07-28T09:21:58;99343.22;;;19.22;100.00
51928;BME280;37953;52.806;18.270;2023-07-28T09:24:29;99347.47;;;19.25;100.00
51928;BME280;37953;52.806;18.270;2023-07-28T09:26:56;99350.03;;;19.26;100.00
51928;BME280;37953;52.806;18.270;2023-07-28T09:29:29;99342.97;;;19.27;100.00
51928;BME280;37953;52.806;18.270;2023-07-28T09:32:03;99346.44;;;19.27;100.00
51928;BME280;37953;52.806;18.270;2023-07-28T09:34:30;99344.66;;;19.28;100.00
51928;BME280;37953;52.806;18.270;2023-07-28T09:36:59;99346.38;;;19.29;100.00
51928;BME280;37953;52.806;18.270;2023-07-28T09:39:25;99350.72;;;19.30;100.00
51928;BME280;37953;52.806;18.270;2023-07-28T09:41:51;99348.06;;;19.30;100.00
51928;BME280;37953;52.806;18.270;2023-07-28T09:44:17;99347.22;;;19.29;100.00
51928;BME280;37953;52.806;18.270;2023-07-28T09:46:50;99345.53;;;19.28;100.00
51928;BME280;37953;52.806;18.270;2023-07-28T09:49:45;99343.69;;;19.30;100.00
51928;BME280;37953;52.806;18.270;2023-07-28T09:52:09;99343.59;;;19.32;100.00
51928;BME280;37953;52.806;18.270;2023-07-28T09:54:38;99340.94;;;19.32;100.00
51928;BME280;37953;52.806;18.270;2023-07-28T09:57:12;99346.91;;;19.36;100.00
51928;BME280;37953;52.806;18.270;2023-07-28T09:59:42;99342.34;;;19.39;100.00
51928;BME280;37953;52.806;18.270;2023-07-28T10:02:08;99347.38;;;19.44;100.00
51928;BME280;37953;52.806;18.270;2023-07-28T10:04:35;99343.72;;;19.46;100.00
51928;BME280;37953;52.806;18.270;2023-07-28T10:07:05;99344.50;;;19.48;100.00
51928;BME280;37953;52.806;18.270;2023-07-28T10:09:33;99343.47;;;19.51;100.00
51928;BME280;37953;52.806;18.270;2023-07-28T10:12:00;99336.34;;;19.53;100.00
51928;BME280;37953;52.806;18.270;2023-07-28T10:14:40;99343.25;;;19.56;100.00
51928;BME280;37953;52.806;18.270;2023-07-28T10:17:08;99337.97;;;19.56;100.00
51928;BME280;37953;52.806;18.270;2023-07-28T10:19:40;99339.69;;;19.57;100.00
51928;BME280;37953;52.806;18.270;2023-07-28T10:22:08;99334.34;;;19.58;100.00
51928;BME280;37953;52.806;18.270;2023-07-28T10:30:11;99333.41;;;19.59;100.00
51928;BME280;37953;52.806;18.270;2023-07-28T10:32:38;99332.47;;;19.60;100.00
51928;BME280;37953;52.806;18.270;2023-07-28T10:37:43;99332.94;;;19.68;100.00
51928;BME280;37953;52.806;18.270;2023-07-28T10:43:15;99327.19;;;19.78;100.00
51928;BME280;37953;52.806;18.270;2023-07-28T10:45:42;99334.00;;;19.82;100.00
51928;BME280;37953;52.806;18.270;2023-07-28T10:48:09;99328.66;;;19.83;100.00
51928;BME280;37953;52.806;18.270;2023-07-28T10:50:34;99327.72;;;19.84;100.00
51928;BME280;37953;52.806;18.270;2023-07-28T10:53:00;99332.81;;;19.87;100.00
51928;BME280;37953;52.806;18.270;2023-07-28T10:55:27;99332.66;;;19.90;100.00
51928;BME280;37953;52.806;18.270;2023-07-28T10:57:53;99329.06;;;19.91;100.00
51928;BME280;37953;52.806;18.270;2023-07-28T11:00:20;99336.06;;;19.92;100.00
51928;BME280;37953;52.806;18.270;2023-07-28T11:02:54;99329.84;;;19.93;100.00
51928;BME280;37953;52.806;18.270;2023-07-28T11:05:21;99322.81;;;19.94;100.00
51928;BME280;37953;52.806;18.270;2023-07-28T11:07:54;99335.03;;;19.95;100.00
51928;BME280;37953;52.806;18.270;2023-07-28T11:10:20;99338.50;;;19.96;100.00
51928;BME280;37953;52.806;18.270;2023-07-28T11:12:47;99347.31;;;19.96;100.00
51928;BME280;37953;52.806;18.270;2023-07-28T11:15:14;99351.63;;;19.97;100.00
51928;BME280;37953;52.806;18.270;2023-07-28T11:17:41;99353.41;;;19.97;100.00
51928;BME280;37953;52.806;18.270;2023-07-28T11:20:20;99349.06;;;19.96;100.00
51928;BME280;37953;52.806;18.270;2023-07-28T11:22:47;99355.09;;;19.98;100.00
51928;BME280;37953;52.806;18.270;2023-07-28T11:25:17;99349.84;;;19.98;100.00
51928;BME280;37953;52.806;18.270;2023-07-28T11:27:43;99360.38;;;19.98;100.00
51928;BME280;37953;52.806;18.270;2023-07-28T11:30:13;99362.09;;;19.99;100.00
51928;BME280;37953;52.806;18.270;2023-07-28T11:32:41;99364.72;;;19.99;100.00
51928;BME280;37953;52.806;18.270;2023-07-28T11:35:08;99349.84;;;19.98;100.00
51928;BME280;37953;52.806;18.270;2023-07-28T11:37:38;99349.00;;;19.97;100.00
51928;BME280;37953;52.806;18.270;2023-07-28T11:40:05;99350.78;;;19.97;100.00
51928;BME280;37953;52.806;18.270;2023-07-28T11:42:55;99345.59;;;19.95;100.00
51928;BME280;37953;52.806;18.270;2023-07-28T11:45:21;99359.72;;;19.94;100.00
51928;BME280;37953;52.806;18.270;2023-07-28T11:47:56;99357.16;;;19.92;100.00
51928;BME280;37953;52.806;18.270;2023-07-28T11:50:23;99364.22;;;19.92;100.00
51928;BME280;37953;52.806;18.270;2023-07-28T11:52:49;99363.34;;;19.91;100.00
51928;BME280;37953;52.806;18.270;2023-07-28T11:55:15;99370.41;;;19.91;100.00
51928;BME280;37953;52.806;18.270;2023-07-28T11:57:42;99369.56;;;19.90;100.00
51928;BME280;37953;52.806;18.270;2023-07-28T12:00:08;99358.16;;;19.90;100.00
51928;BME280;37953;52.806;18.270;2023-07-28T12:02:34;99362.56;;;19.89;100.00
51928;BME280;37953;52.806;18.270;2023-07-28T12:05:00;99359.09;;;19.89;100.00
51928;BME280;37953;52.806;18.270;2023-07-28T12:07:27;99366.16;;;19.88;100.00
51928;BME280;37953;52.806;18.270;2023-07-28T12:09:53;99370.56;;;19.88;100.00
51928;BME280;37953;52.806;18.270;2023-07-28T12:12:26;99374.13;;;19.87;100.00
51928;BME280;37953;52.806;18.270;2023-07-28T12:14:54;99370.66;;;19.86;100.00
51928;BME280;37953;52.806;18.270;2023-07-28T12:17:21;99361.03;;;19.85;100.00
51928;BME280;37953;52.806;18.270;2023-07-28T12:22:26;99382.22;;;19.84;100.00
51928;BME280;37953;52.806;18.270;2023-07-28T12:24:52;99395.47;;;19.82;100.00
51928;BME280;37953;52.806;18.270;2023-07-28T12:27:19;99404.31;;;19.81;100.00
51928;BME280;37953;52.806;18.270;2023-07-28T12:29:51;99406.06;;;19.81;100.00
51928;BME280;37953;52.806;18.270;2023-07-28T12:32:18;99413.22;;;19.79;100.00
51928;BME280;37953;52.806;18.270;2023-07-28T12:34:44;99416.63;;;19.81;100.00
51928;BME280;37953;52.806;18.270;2023-07-28T12:37:24;99412.13;;;19.83;100.00
51928;BME280;37953;52.806;18.270;2023-07-28T12:39:50;99405.84;;;19.85;100.00
51928;BME280;37953;52.806;18.270;2023-07-28T12:42:16;99410.00;;;19.89;100.00
51928;BME280;37953;52.806;18.270;2023-07-28T12:44:42;99409.63;;;19.97;100.00
51928;BME280;37953;52.806;18.270;2023-07-28T12:47:08;99404.03;;;20.03;100.00
51928;BME280;37953;52.806;18.270;2023-07-28T12:49:34;99411.59;;;20.09;100.00
51928;BME280;37953;52.806;18.270;2023-07-28T12:52:00;99412.31;;;20.13;100.00
51928;BME280;37953;52.806;18.270;2023-07-28T12:54:27;99410.34;;;20.17;100.00
51928;BME280;37953;52.806;18.270;2023-07-28T12:56:55;99416.13;;;20.23;100.00